Eugene, OR (97404)

7:21 PM PDT on October 22, 2014 (GMT -0700)
Santa Clara | Change Station
CLOSE
Current Station
Personal Weather Station
Location: Eugene, OR
Elevation: 406 ft
Nearby Weather Stations

Elev 406 ft 44.11 °N, 123.15 °W | Updated 1 second ago

Rain
Rain
56.4 °F
Feels Like 56.4 °F
N
0.0
Wind Variable Wind from SW
Gusts 0.0 mph

Today
High -- | Low -- °F
--% Chance of Precip.
Yesterday
High -- | Low -- °F
Precip. -- in
7:36 AM 6:16 PM
Waning Crescent, 1% visible
Pressure 29.77 in
Visibility 1.5 miles
Clouds Mostly Cloudy 3500 ft
Overcast 4700 ft
Dew Point 52 °F
Humidity 84%
Rainfall 1.23 in
Snow Depth Not available.
UV 0 out of 12
Pollen .30 out of 12
PM2.5 Good
Flu Activity Sporadic
METAR KEUG 230154Z 21006KT 1 1/2SM +RA BR BKN035 OVC047 13/12 A2977 RMK AO2 SFC VIS 2 SLP081 P0031 T01330122

More Conditions Fewer Conditions

Pressure 29.77 in
Visibility 1.5 miles
Clouds Mostly Cloudy 3500 ft
Overcast 4700 ft
Dew Point 52 °F
Humidity 84%
Rainfall 1.23 in
Snow Depth Not available.
UV 0 out of 12
Pollen .30 out of 12
PM2.5 Good
Flu Activity Sporadic
METAR KEUG 230154Z 21006KT 1 1/2SM +RA BR BKN035 OVC047 13/12 A2977 RMK AO2 SFC VIS 2 SLP081 P0031 T01330122

More Conditions Fewer Conditions

10-Day Weather Forecast

Almanac

Astronomy

Oct. 22, 2014 Rise Set
Actual Time 7:36 AM PDT 6:16 PM PDT
Civil Twilight 7:06 AM PDT 6:46 PM PDT
Nautical Twilight 6:33 AM PDT 7:20 PM PDT
Astronomical Twilight 5:59 AM PDT 7:53 PM PDT
Moon 6:20 AM PDT (10/22) 5:48 PM PDT (10/22)
Length of Visible Light 11h 39m
Length of Day
10h 40m
Tomorrow will be 2m 51s shorter.
Waning Crescent, 1% of the Moon is Illuminated
Today
Waning Crescent
Oct 23
New
Oct 30
First Quarter
Nov 6
Full
Nov 14
Last Quarter

Today's Extremes

State Highs State Lows

Community

WunderPhotos

Upload Photos

1,764,109 photos uploaded!

Nearby

Air Quality

  Air Quality AQ Index Pollutant
Yesterday Good
PM2.5
Current Good
PM2.5
Wednesday Good
PM2.5
Thursday Good
PM2.5

Snow Depth

Station Depth Elevation
Holland Meadows 0 in 4900 ft
Jump Off Joe 0 in 3500 ft
Roaring River 0 in 4900 ft
Irish Taylor 0 in 5500 ft
Salt Creek Falls 0 in 4000 ft

Earthquake Activity

City Distance Mag. Time & Date
No recent earthquake activity has been reported nearby.
Minimum magnitude displayed is 2.5.

Coastal Water Temperatures

Place Temperature
No Stations Reporting

Nearby Weather Stations